Time;durP1;ratioP1;P1;durP2;ratioP2;P2;SDS_P1;SDS_P2;PMS_P1;PMS_P2;Temp;Humidity;BMP_temperature;BMP_pressure;BME280_temperature;BME280_humidity;BME280_pressure;Samples;Min_cycle;Max_cycle;Signal;HPM_P1;HPM_P2
2022/04/12 00:01:23;;;;;;;53.52;26.12;;;;;;;0.72;81.97;98410.64;1768123;81;21423;-57
2022/04/12 00:03:49;;;;;;;60.52;27.62;;;;;;;0.62;81.76;98405.44;1766516;79;21468;-57
2022/04/12 00:06:15;;;;;;;50.75;24.50;;;;;;;0.50;81.30;98404.70;1749200;81;20936;-57
2022/04/12 00:08:41;;;;;;;48.33;24.30;;;;;;;0.40;82.18;98403.48;1753307;81;20884;-57
2022/04/12 00:11:07;;;;;;;51.02;25.70;;;;;;;0.35;85.73;98404.62;1742531;80;20861;-57
2022/04/12 00:13:33;;;;;;;50.35;25.35;;;;;;;0.36;84.72;98404.41;1753141;81;21383;-57
2022/04/12 00:15:59;;;;;;;43.42;24.85;;;;;;;0.31;86.93;98398.86;1754766;81;21036;-56
2022/04/12 00:21:10;;;;;;;47.40;25.15;;;;;;;0.25;84.17;98398.34;1750911;81;21392;-57
2022/04/12 00:23:36;;;;;;;51.88;24.37;;;;;;;0.20;84.72;98394.97;1755567;79;20849;-57
2022/04/12 00:26:01;;;;;;;46.98;24.52;;;;;;;0.12;86.78;98391.68;1753588;81;21196;-58
2022/04/12 00:28:27;;;;;;;46.37;24.37;;;;;;;0.09;86.27;98391.59;1752456;81;20877;-57
2022/04/12 00:30:53;;;;;;;45.33;24.15;;;;;;;0.07;85.69;98394.94;1743111;81;20956;-57
2022/04/12 00:33:19;;;;;;;43.28;21.62;;;;;;;0.04;85.40;98395.36;1759848;79;21495;-57
2022/04/12 00:35:45;;;;;;;46.88;21.97;;;;;;;-0.05;86.94;98391.25;1742631;81;20873;-57
2022/04/12 00:38:23;;;;;;;32.23;18.70;;;;;;;-0.08;88.66;98394.33;1729287;81;22040;-57
2022/04/12 00:40:50;;;;;;;49.03;21.37;;;;;;;-0.10;87.31;98393.69;1755113;81;21428;-57
2022/04/12 00:43:18;;;;;;;40.10;21.05;;;;;;;-0.10;86.10;98387.02;1770906;79;21020;-57
2022/04/12 00:45:44;;;;;;;41.85;21.70;;;;;;;-0.14;85.23;98395.95;1756483;81;21021;-57
2022/04/12 00:48:10;;;;;;;37.13;21.73;;;;;;;-0.21;84.54;98392.44;1760454;81;20976;-57
2022/04/12 00:50:37;;;;;;;35.68;19.30;;;;;;;-0.26;84.53;98393.55;1751580;81;21038;-58
2022/04/12 00:53:03;;;;;;;46.60;22.32;;;;;;;-0.30;84.13;98389.14;1753347;81;21363;-57
2022/04/12 00:55:30;;;;;;;41.65;21.30;;;;;;;-0.34;84.10;98391.91;1754820;81;20964;-57
2022/04/12 00:57:56;;;;;;;39.70;20.68;;;;;;;-0.39;84.07;98394.34;1771052;79;21164;-58
2022/04/12 01:00:23;;;;;;;44.75;21.05;;;;;;;-0.46;83.89;98397.49;1758406;80;21063;-57
2022/04/12 01:02:50;;;;;;;35.88;19.25;;;;;;;-0.55;83.81;98393.87;1742840;81;21433;-57
2022/04/12 01:05:16;;;;;;;38.98;19.82;;;;;;;-0.64;83.86;98395.38;1744043;81;21256;-57
2022/04/12 01:07:43;;;;;;;40.75;20.00;;;;;;;-0.68;83.84;98399.47;1752000;81;20877;-57
2022/04/12 01:10:09;;;;;;;36.77;19.32;;;;;;;-0.72;85.26;98396.06;1753741;81;21009;-57
2022/04/12 01:12:39;;;;;;;38.02;18.55;;;;;;;-0.67;89.47;98405.62;1753019;81;21029;-57
2022/04/12 01:15:17;;;;;;;35.85;18.27;;;;;;;-0.62;87.61;98399.98;1753606;81;21187;-57
2022/04/12 01:17:44;;;;;;;38.78;21.02;;;;;;;-0.55;86.04;98400.53;1753424;81;20976;-57
2022/04/12 01:20:11;;;;;;;48.08;21.17;;;;;;;-0.60;85.49;98402.45;1753556;81;20980;-57
2022/04/12 01:22:49;;;;;;;39.70;19.73;;;;;;;-0.62;85.34;98399.98;1744069;81;20980;-57
2022/04/12 01:25:15;;;;;;;35.68;19.95;;;;;;;-0.62;85.42;98397.84;1739871;82;20973;-58
2022/04/12 01:27:40;;;;;;;39.08;22.13;;;;;;;-0.66;85.24;98405.92;1751945;81;21086;-57
2022/04/12 01:30:08;;;;;;;36.10;18.95;;;;;;;-0.71;88.34;98405.17;1752086;81;21473;-57
2022/04/12 01:32:34;;;;;;;39.25;19.10;;;;;;;-0.69;85.94;98407.12;1753212;81;21378;-57
2022/04/12 01:35:00;;;;;;;39.33;22.07;;;;;;;-0.73;85.40;98407.73;1745288;81;20932;-57
2022/04/12 01:37:26;;;;;;;45.05;20.88;;;;;;;-0.78;87.90;98410.97;1752782;81;20870;-57
2022/04/12 01:39:52;;;;;;;34.38;18.62;;;;;;;-0.81;88.96;98410.56;1752755;79;22236;-58
2022/04/12 01:42:18;;;;;;;33.33;19.30;;;;;;;-0.82;87.78;98412.91;1763845;81;20845;-57
2022/04/12 01:44:43;;;;;;;44.58;19.67;;;;;;;-0.87;87.13;98407.66;1746945;81;20932;-58
2022/04/12 01:47:09;;;;;;;35.52;19.55;;;;;;;-0.86;85.93;98415.95;1765747;81;21083;-57
2022/04/12 01:49:35;;;;;;;44.88;21.30;;;;;;;-0.86;85.85;98417.27;1747909;81;20874;-57
2022/04/12 01:52:03;;;;;;;31.25;19.45;;;;;;;-0.86;86.06;98416.45;1766246;81;22345;-57
2022/04/12 01:54:29;;;;;;;38.40;20.35;;;;;;;-0.86;85.42;98417.78;1742559;81;21543;-57
2022/04/12 01:56:55;;;;;;;37.15;20.02;;;;;;;-0.89;88.95;98415.53;1759046;81;21014;-57
2022/04/12 01:59:21;;;;;;;43.65;20.80;;;;;;;-0.87;89.57;98422.80;1749498;81;20917;-57
2022/04/12 02:01:47;;;;;;;39.67;21.40;;;;;;;-0.87;90.72;98421.47;1753638;81;21008;-58
2022/04/12 02:04:13;;;;;;;35.08;19.48;;;;;;;-0.90;90.64;98416.04;1753309;81;21154;-57
2022/04/12 02:06:39;;;;;;;31.73;19.10;;;;;;;-0.87;89.18;98420.14;1754919;81;20880;-57
2022/04/12 02:09:05;;;;;;;42.23;20.40;;;;;;;-0.89;87.23;98428.32;1758099;79;20939;-57
2022/04/12 02:11:31;;;;;;;40.28;21.90;;;;;;;-0.91;87.77;98429.03;1754952;81;21483;-57
2022/04/12 02:13:57;;;;;;;31.10;17.85;;;;;;;-0.90;87.21;98429.85;1750118;81;20916;-57
2022/04/12 02:16:23;;;;;;;34.65;19.12;;;;;;;-0.96;87.06;98431.96;1744138;81;21216;-57
2022/04/12 02:18:49;;;;;;;34.40;18.32;;;;;;;-1.00;87.68;98430.72;1755254;81;20973;-58
2022/04/12 02:21:15;;;;;;;36.85;18.92;;;;;;;-1.02;89.47;98432.77;1765958;81;20969;-57
2022/04/12 02:23:40;;;;;;;43.13;22.67;;;;;;;-1.02;87.13;98430.10;1754577;81;20901;-57
2022/04/12 02:26:06;;;;;;;43.48;18.87;;;;;;;-1.14;89.68;98429.80;1765373;81;20897;-58
2022/04/12 02:28:32;;;;;;;35.20;17.05;;;;;;;-1.16;87.12;98437.16;1758918;79;21342;-57
2022/04/12 02:30:59;;;;;;;35.33;17.60;;;;;;;-1.26;86.73;98436.69;1753114;81;20861;-57
2022/04/12 02:33:25;;;;;;;34.27;18.45;;;;;;;-1.38;87.80;98441.70;1753505;81;20981;-57
2022/04/12 02:35:50;;;;;;;36.83;19.85;;;;;;;-1.37;89.61;98441.19;1753497;81;20873;-57
2022/04/12 02:38:17;;;;;;;30.35;17.48;;;;;;;-1.35;91.33;98446.66;1728974;81;21462;-57
2022/04/12 02:40:42;;;;;;;31.75;18.23;;;;;;;-1.30;90.69;98449.53;1765270;81;21448;-57
2022/04/12 02:43:08;;;;;;;35.83;16.87;;;;;;;-1.30;90.53;98446.87;1748612;79;21578;-57
2022/04/12 02:45:34;;;;;;;32.25;18.07;;;;;;;-1.29;91.33;98453.02;1745252;81;20964;-57
2022/04/12 02:48:00;;;;;;;28.92;16.82;;;;;;;-1.27;89.28;98461.64;1753429;81;20995;-58
2022/04/12 02:50:27;;;;;;;39.63;17.98;;;;;;;-1.34;90.98;98457.59;1753568;81;20909;-56
2022/04/12 02:52:53;;;;;;;30.77;14.78;;;;;;;-1.31;89.01;98467.02;1764070;81;21526;-57
2022/04/12 02:55:19;;;;;;;33.28;15.43;;;;;;;-1.37;87.87;98464.61;1749322;81;20885;-57
2022/04/12 02:57:45;;;;;;;32.93;15.85;;;;;;;-1.38;87.52;98469.62;1764848;81;20891;-57
2022/04/12 03:00:30;;;;;;;33.35;17.98;;;;;;;-1.42;87.88;98467.04;1744146;81;21041;-57
2022/04/12 03:02:56;;;;;;;31.10;17.77;;;;;;;-1.38;88.32;98472.27;1753748;81;21542;-57
2022/04/12 03:05:22;;;;;;;41.48;21.68;;;;;;;-1.36;88.79;98468.13;1753154;81;21164;-57
2022/04/12 03:07:47;;;;;;;36.58;18.70;;;;;;;-1.31;90.61;98461.70;1753287;81;21015;-57
2022/04/12 03:10:13;;;;;;;41.10;18.90;;;;;;;-1.22;90.24;98467.19;1753161;81;20891;-57
2022/04/12 03:12:39;;;;;;;32.78;18.32;;;;;;;-1.22;89.37;98464.02;1765521;81;20916;-57
2022/04/12 03:15:08;;;;;;;31.27;15.55;;;;;;;-1.17;88.65;98471.43;1748048;81;20898;-57
2022/04/12 03:17:34;;;;;;;32.23;18.85;;;;;;;-1.15;90.08;98466.22;1753540;81;21098;-57
2022/04/12 03:20:00;;;;;;;33.02;18.15;;;;;;;-1.12;90.94;98465.00;1753060;81;21036;-57
2022/04/12 03:22:26;;;;;;;35.33;16.87;;;;;;;-1.09;88.94;98479.77;1743217;81;20845;-57
2022/04/12 03:24:52;;;;;;;31.50;17.95;;;;;;;-1.16;88.15;98467.24;1739241;82;20923;-57
2022/04/12 03:27:18;;;;;;;36.75;19.00;;;;;;;-1.14;89.02;98469.70;1765704;81;20947;-57
2022/04/12 03:29:44;;;;;;;34.35;15.93;;;;;;;-1.11;90.36;98468.00;1755548;81;22238;-58
2022/04/12 03:32:10;;;;;;;34.40;16.52;;;;;;;-1.04;88.51;98468.84;1745877;81;20939;-56
2022/04/12 03:34:38;;;;;;;32.38;17.02;;;;;;;-1.07;89.31;98469.75;1745615;81;20956;-57
2022/04/12 03:37:04;;;;;;;36.30;19.02;;;;;;;-1.09;89.91;98465.97;1749873;81;22005;-57
2022/04/12 03:39:30;;;;;;;30.68;17.50;;;;;;;-1.09;90.53;98466.48;1753235;81;21032;-57
2022/04/12 03:41:56;;;;;;;33.83;16.42;;;;;;;-1.08;91.58;98464.13;1753541;81;21158;-57
2022/04/12 03:44:22;;;;;;;36.10;20.57;;;;;;;-1.04;90.59;98460.05;1753060;81;21004;-57
2022/04/12 03:46:48;;;;;;;56.25;25.60;;;;;;;-1.05;91.83;98461.06;1753460;81;21044;-57
2022/04/12 03:49:14;;;;;;;199.87;101.65;;;;;;;-0.99;89.95;98458.97;1753147;81;20972;-57
2022/04/12 03:51:40;;;;;;;157.97;75.17;;;;;;;-1.04;91.11;98460.05;1753544;81;20865;-57
2022/04/12 03:54:05;;;;;;;206.63;90.50;;;;;;;-1.01;91.00;98465.00;1753334;81;21843;-57
2022/04/12 03:56:31;;;;;;;127.38;58.48;;;;;;;-0.98;90.66;98461.42;1747708;81;20841;-57
2022/04/12 03:59:00;;;;;;;45.38;26.57;;;;;;;-0.94;89.47;98463.17;1754349;79;20955;-57
2022/04/12 04:01:28;;;;;;;62.20;30.12;;;;;;;-0.99;88.81;98469.61;1745502;81;20961;-57
2022/04/12 04:03:55;;;;;;;111.30;52.65;;;;;;;-1.02;90.14;98473.48;1749577;81;21000;-57
2022/04/12 04:06:22;;;;;;;51.88;28.17;;;;;;;-0.99;89.31;98463.77;1759992;81;21151;-57
2022/04/12 04:08:48;;;;;;;39.67;23.95;;;;;;;-1.00;90.00;98473.28;1748674;81;21016;-57
2022/04/12 04:11:13;;;;;;;39.73;22.50;;;;;;;-1.03;91.27;98470.48;1761521;81;20876;-57
2022/04/12 04:13:40;;;;;;;55.65;25.72;;;;;;;-1.00;90.46;98475.95;1746917;81;20936;-57
2022/04/12 04:16:06;;;;;;;48.33;25.23;;;;;;;-0.97;90.08;98476.87;1761075;81;21008;-57
2022/04/12 04:18:34;;;;;;;82.30;37.00;;;;;;;-0.95;90.26;98477.50;1754273;79;21552;-57
2022/04/12 04:21:00;;;;;;;53.33;28.45;;;;;;;-0.96;90.32;98477.19;1761599;81;21024;-57
2022/04/12 04:23:26;;;;;;;68.67;32.05;;;;;;;-0.93;90.90;98474.16;1744632;81;21000;-57
2022/04/12 04:25:51;;;;;;;86.63;34.90;;;;;;;-0.91;89.16;98478.26;1753579;81;20861;-57
2022/04/12 04:28:21;;;;;;;47.53;24.12;;;;;;;-0.92;90.01;98481.12;1753436;81;20925;-57
2022/04/12 04:30:45;;;;;;;54.03;24.07;;;;;;;-0.89;90.89;98478.88;1747515;81;21542;-57
2022/04/12 04:33:11;;;;;;;57.40;25.40;;;;;;;-0.81;89.96;98480.56;1739261;81;20866;-57
2022/04/12 04:35:37;;;;;;;63.13;26.50;;;;;;;-0.74;89.53;98481.43;1751500;81;21441;-57
2022/04/12 04:38:03;;;;;;;65.75;28.50;;;;;;;-0.71;90.11;98474.88;1757405;81;20881;-57
2022/04/12 04:40:29;;;;;;;66.02;29.40;;;;;;;-0.65;90.64;98481.58;1753395;81;20983;-57
2022/04/12 04:42:55;;;;;;;53.83;28.42;;;;;;;-0.53;89.90;98485.83;1740106;81;21359;-57
2022/04/12 04:45:21;;;;;;;51.20;25.02;;;;;;;-0.43;89.39;98485.46;1749789;81;21602;-57
2022/04/12 04:47:59;;;;;;;45.10;21.80;;;;;;;-0.31;89.63;98491.37;1769913;79;20996;-57
2022/04/12 04:50:27;;;;;;;53.00;29.70;;;;;;;-0.22;89.91;98492.02;1770939;81;20972;-57
2022/04/12 04:52:53;;;;;;;40.48;18.55;;;;;;;-0.13;89.69;98495.33;1767539;81;20978;-57
2022/04/12 04:55:19;;;;;;;36.42;21.20;;;;;;;-0.04;88.94;98485.63;1753285;81;21521;-57
2022/04/12 04:57:46;;;;;;;32.55;18.98;;;;;;;0.03;88.20;98483.50;1756389;80;21044;-57
2022/04/12 05:00:16;;;;;;;42.00;21.05;;;;;;;0.13;87.91;98491.41;1753135;81;21040;-57
2022/04/12 05:02:47;;;;;;;28.95;12.63;;;;;;;0.21;87.42;98497.89;1753531;81;21449;-57
2022/04/12 05:05:13;;;;;;;37.83;20.65;;;;;;;0.30;87.17;98494.53;1749497;81;21452;-57
2022/04/12 05:07:41;;;;;;;38.13;20.37;;;;;;;0.35;86.91;98501.94;1730284;81;21116;-57
2022/04/12 05:10:09;;;;;;;45.35;23.27;;;;;;;0.41;86.74;98501.92;1753342;81;21076;-57
2022/04/12 05:12:35;;;;;;;39.10;20.52;;;;;;;0.45;86.56;98505.02;1753035;81;21422;-57
2022/04/12 05:15:01;;;;;;;36.65;18.90;;;;;;;0.51;86.68;98500.19;1756559;81;20865;-57
2022/04/12 05:17:28;;;;;;;42.53;21.33;;;;;;;0.61;86.73;98509.14;1754905;81;20841;-58
2022/04/12 05:19:54;;;;;;;37.98;21.52;;;;;;;0.69;86.70;98510.28;1753247;81;21345;-57
2022/04/12 05:22:19;;;;;;;36.90;20.10;;;;;;;0.82;86.24;98510.27;1753570;81;20917;-57
2022/04/12 05:24:46;;;;;;;37.10;21.30;;;;;;;0.80;85.97;98512.33;1752925;81;20908;-57
2022/04/12 05:27:12;;;;;;;31.73;15.28;;;;;;;0.91;85.98;98510.38;1753374;81;21445;-57
2022/04/12 05:29:38;;;;;;;40.60;20.08;;;;;;;1.05;85.16;98513.87;1751877;81;20996;-57
2022/04/12 05:32:06;;;;;;;32.20;19.77;;;;;;;1.05;85.02;98514.69;1766110;81;21305;-57
2022/04/12 05:34:31;;;;;;;26.37;14.60;;;;;;;1.15;85.56;98514.27;1742530;81;21429;-57
2022/04/12 05:36:57;;;;;;;41.23;22.27;;;;;;;1.29;84.81;98513.74;1739498;81;20860;-57
2022/04/12 05:39:23;;;;;;;38.58;20.85;;;;;;;1.28;84.13;98509.41;1752952;81;20846;-57
2022/04/12 05:41:49;;;;;;;41.35;23.52;;;;;;;1.26;84.39;98509.62;1748372;81;20868;-57
2022/04/12 05:44:15;;;;;;;43.23;19.75;;;;;;;1.39;84.26;98512.80;1753331;81;21593;-57
2022/04/12 05:46:41;;;;;;;38.55;21.65;;;;;;;1.53;83.86;98517.05;1769813;81;21518;-57
2022/04/12 05:49:07;;;;;;;39.27;19.95;;;;;;;1.56;83.74;98512.65;1756474;81;20904;-57
2022/04/12 05:51:33;;;;;;;58.33;24.25;;;;;;;1.69;83.76;98521.13;1758176;80;21487;-58
2022/04/12 05:53:59;;;;;;;36.45;20.60;;;;;;;1.84;83.90;98525.70;1751527;80;21008;-57
2022/04/12 05:56:25;;;;;;;38.98;20.40;;;;;;;2.13;84.56;98525.67;1750150;80;21885;-57
2022/04/12 05:58:50;;;;;;;41.45;22.55;;;;;;;2.41;84.99;98521.84;1752601;79;20943;-58
2022/04/12 06:01:16;;;;;;;37.10;21.68;;;;;;;2.67;83.82;98520.86;1755626;80;20969;-58
2022/04/12 06:03:42;;;;;;;39.18;23.50;;;;;;;3.00;85.06;98514.73;1749428;80;20915;-58
2022/04/12 06:06:08;;;;;;;40.30;23.67;;;;;;;3.19;83.90;98514.77;1746188;80;20952;-58
2022/04/12 06:08:34;;;;;;;38.15;21.57;;;;;;;3.24;81.18;98518.41;1746294;80;21146;-58
2022/04/12 06:11:00;;;;;;;35.88;19.40;;;;;;;3.34;81.01;98509.89;1748688;80;20928;-58
2022/04/12 06:13:26;;;;;;;38.92;19.00;;;;;;;3.34;81.01;98509.89;1746823;80;20956;-58
2022/04/12 06:15:52;;;;;;;34.80;19.55;;;;;;;3.42;80.50;98516.31;1744003;81;20987;-57
2022/04/12 06:18:18;;;;;;;41.53;19.27;;;;;;;3.53;78.45;98523.61;1748775;80;20905;-57
2022/04/12 06:20:44;;;;;;;40.85;22.02;;;;;;;3.82;79.47;98523.38;1748789;80;21131;-57
2022/04/12 06:23:10;;;;;;;328.37;189.07;;;;;;;4.02;77.30;98527.19;1753529;81;20889;-58
2022/04/12 06:25:36;;;;;;;37.33;22.48;;;;;;;4.07;76.79;98525.97;1738617;80;20957;-57
2022/04/12 06:28:02;;;;;;;65.40;30.25;;;;;;;4.37;75.30;98526.53;1753948;80;20861;-57
2022/04/12 06:30:30;;;;;;;179.72;66.30;;;;;;;4.67;75.48;98534.03;1749414;80;21606;-58
2022/04/12 06:32:56;;;;;;;224.52;92.65;;;;;;;5.05;74.74;98533.67;1752563;80;21135;-57
2022/04/12 06:35:22;;;;;;;515.23;220.80;;;;;;;5.35;74.24;98528.72;1748571;80;21156;-57
2022/04/12 06:37:52;;;;;;;76.72;38.40;;;;;;;5.47;74.31;98524.67;1747559;80;21066;-58
2022/04/12 06:40:19;;;;;;;;;;;;;;;5.61;71.80;98529.58;1755913;80;20975;-57
2022/04/12 06:42:45;;;;;;;54.70;23.95;;;;;;;5.68;71.11;98528.66;1740342;81;20192;-58
2022/04/12 06:45:11;;;;;;;38.20;19.85;;;;;;;5.85;69.29;98529.03;1730692;81;21673;-57
2022/04/12 06:47:38;;;;;;;28.77;15.55;;;;;;;5.87;69.02;98526.09;1743193;81;20852;-57
2022/04/12 06:50:05;;;;;;;581.25;253.45;;;;;;;6.00;69.66;98527.76;1749185;80;21457;-58
2022/04/12 06:52:31;;;;;;;62.05;32.08;;;;;;;6.17;69.04;98527.30;1744151;80;21039;-57
2022/04/12 06:54:58;;;;;;;106.43;42.30;;;;;;;6.60;68.66;98520.58;1754160;81;21006;-58
2022/04/12 06:57:24;;;;;;;77.22;34.13;;;;;;;7.38;65.97;98520.25;1747753;81;21168;-58
2022/04/12 06:59:51;;;;;;;30.97;15.63;;;;;;;7.93;65.35;98514.28;1741579;80;21659;-57
2022/04/12 07:02:17;;;;;;;332.80;138.35;;;;;;;8.42;64.15;98513.00;1755724;80;22337;-58
2022/04/12 07:04:43;;;;;;;59.95;30.68;;;;;;;9.79;62.98;98511.14;1744707;81;21457;-58
2022/04/12 07:07:09;;;;;;;80.22;34.85;;;;;;;9.79;62.98;98511.14;1748047;81;21455;-58
2022/04/12 07:09:35;;;;;;;40.40;20.62;;;;;;;10.26;59.14;98512.48;1755613;81;21249;-57
2022/04/12 07:12:01;;;;;;;23.57;12.95;;;;;;;11.15;60.43;98515.89;1762192;81;20897;-58
2022/04/12 07:14:29;;;;;;;273.87;138.30;;;;;;;11.65;56.37;98510.16;1745459;80;21044;-57
2022/04/12 07:16:55;;;;;;;47.40;24.77;;;;;;;11.73;56.62;98502.27;1745118;80;21137;-58
2022/04/12 07:19:21;;;;;;;21.05;9.58;;;;;;;12.53;55.61;98499.52;1740258;80;21598;-58
2022/04/12 07:21:48;;;;;;;30.32;17.32;;;;;;;12.67;53.45;98500.53;1746352;80;21137;-58
2022/04/12 07:24:14;;;;;;;15.63;8.38;;;;;;;13.31;50.81;98500.63;1742993;81;21468;-57
2022/04/12 07:26:40;;;;;;;17.20;8.90;;;;;;;13.18;48.36;98498.00;1734649;81;21035;-58
2022/04/12 07:29:06;;;;;;;42.35;25.97;;;;;;;13.70;49.55;98503.27;1740008;81;21100;-58
2022/04/12 07:31:32;;;;;;;18.80;9.28;;;;;;;14.48;49.50;98505.63;1739970;81;21435;-58
2022/04/12 07:33:58;;;;;;;18.55;11.45;;;;;;;15.14;47.31;98503.30;1742435;80;21148;-58
2022/04/12 07:36:24;;;;;;;19.10;11.03;;;;;;;15.47;46.11;98497.85;1743802;81;21014;-58
2022/04/12 07:38:50;;;;;;;14.63;7.67;;;;;;;15.87;42.71;98488.11;1740724;80;20876;-58
2022/04/12 07:41:16;;;;;;;11.50;6.65;;;;;;;15.83;43.42;98486.30;1742395;81;20881;-58
2022/04/12 07:43:47;;;;;;;12.18;7.58;;;;;;;16.48;44.40;98486.05;1742325;81;36704;-58
2022/04/12 07:46:13;;;;;;;7.80;4.00;;;;;;;16.63;41.08;98485.16;1739083;81;21186;-58
2022/04/12 07:48:42;;;;;;;9.45;3.80;;;;;;;16.56;34.06;98486.69;1738720;81;20927;-58
2022/04/12 07:51:08;;;;;;;3.17;1.87;;;;;;;16.89;30.24;98494.18;1718674;81;21047;-58
2022/04/12 07:53:35;;;;;;;6.08;3.00;;;;;;;17.76;33.68;98492.85;1740611;81;21039;-58
2022/04/12 07:56:00;;;;;;;4.95;2.42;;;;;;;17.27;30.28;98492.47;1746230;81;20961;-59
2022/04/12 07:58:26;;;;;;;9.98;3.77;;;;;;;17.81;32.12;98495.47;1742064;80;21903;-58
2022/04/12 08:00:52;;;;;;;6.20;2.83;;;;;;;18.15;29.71;98496.73;1745487;81;20881;-58
2022/04/12 08:03:21;;;;;;;4.00;2.30;;;;;;;18.80;29.75;98495.38;1750561;79;20940;-58
2022/04/12 08:05:48;;;;;;;4.67;3.30;;;;;;;19.41;30.69;98497.52;1741627;81;21091;-59
2022/04/12 08:08:14;;;;;;;3.30;2.05;;;;;;;19.67;30.14;98500.24;1725106;82;21075;-59
2022/04/12 08:10:40;;;;;;;5.35;2.40;;;;;;;19.28;25.81;98499.87;1735076;81;21158;-59
2022/04/12 08:13:06;;;;;;;7.37;3.00;;;;;;;19.44;25.99;98505.67;1728958;81;20888;-59
2022/04/12 08:15:32;;;;;;;4.05;2.12;;;;;;;19.29;25.74;98506.17;1735664;81;20904;-58
2022/04/12 08:17:58;;;;;;;5.15;2.80;;;;;;;19.24;25.28;98504.98;1736621;80;21143;-59
2022/04/12 08:20:24;;;;;;;3.47;1.82;;;;;;;19.48;22.13;98503.87;1732621;81;20992;-58
2022/04/12 08:22:52;;;;;;;4.22;2.12;;;;;;;19.48;22.13;98503.87;1729027;81;21575;-58
2022/04/12 08:25:18;;;;;;;12.03;2.77;;;;;;;19.10;21.44;98504.57;1734742;81;20982;-59
2022/04/12 08:27:45;;;;;;;9.05;2.30;;;;;;;19.52;21.04;98508.97;1743327;80;21082;-59
2022/04/12 08:30:12;;;;;;;7.45;2.90;;;;;;;20.67;25.59;98500.19;1742834;81;21070;-58
2022/04/12 08:32:38;;;;;;;17.55;4.05;;;;;;;20.87;23.36;98504.11;1738690;81;21161;-59
2022/04/12 08:35:05;;;;;;;11.55;3.90;;;;;;;21.75;24.88;98495.30;1738029;81;21551;-58
2022/04/12 08:37:31;;;;;;;180.25;14.75;;;;;;;22.56;24.34;98488.94;1741594;80;21431;-58
2022/04/12 08:39:57;;;;;;;4.97;2.77;;;;;;;23.54;24.03;98494.16;1742786;81;21036;-59
2022/04/12 08:42:23;;;;;;;6.40;3.35;;;;;;;22.01;22.31;98497.75;1756507;80;21536;-59
2022/04/12 08:44:49;;;;;;;6.15;3.12;;;;;;;22.01;22.31;98497.75;1735669;80;20882;-58
2022/04/12 08:47:16;;;;;;;10.08;3.35;;;;;;;20.75;21.20;98497.14;1745462;80;21310;-58
2022/04/12 08:49:42;;;;;;;21.48;14.47;;;;;;;22.15;22.04;98496.30;1743571;80;21055;-59
2022/04/12 08:52:12;;;;;;;4.33;3.52;;;;;;;23.15;21.16;98499.39;1743692;80;21513;-58
2022/04/12 08:54:39;;;;;;;9.10;4.00;;;;;;;23.97;21.46;98496.70;1741282;80;21737;-58
2022/04/12 08:57:05;;;;;;;10.20;4.47;;;;;;;23.10;17.30;98494.70;1737395;80;21040;-58
2022/04/12 08:59:31;;;;;;;5.20;3.42;;;;;;;22.48;18.68;98499.53;1739317;80;21073;-58
2022/04/12 09:01:57;;;;;;;4.33;2.95;;;;;;;23.95;19.25;98497.64;1704927;82;21573;-58
2022/04/12 09:04:26;;;;;;;12.93;4.75;;;;;;;24.45;19.00;98494.97;1736131;80;21052;-58
2022/04/12 09:06:55;;;;;;;4.42;3.37;;;;;;;23.83;19.54;98491.02;1742624;80;21132;-58
2022/04/12 09:09:24;;;;;;;7.22;3.22;;;;;;;22.03;19.53;98498.20;1732060;80;21422;-58
2022/04/12 09:12:02;;;;;;;5.87;3.55;;;;;;;23.51;18.97;98494.30;1740405;80;22237;-58
2022/04/12 09:14:43;;;;;;;6.80;3.15;;;;;;;23.51;18.86;98497.06;1729888;81;21467;-58
2022/04/12 09:17:14;;;;;;;7.60;3.47;;;;;;;22.97;18.21;98491.96;1734580;80;21136;-58
2022/04/12 09:19:51;;;;;;;13.13;3.87;;;;;;;23.49;18.07;98487.49;1730325;81;20989;-58
2022/04/12 09:22:23;;;;;;;5.12;2.30;;;;;;;24.11;17.71;98492.34;1742898;80;20999;-58
2022/04/12 09:24:51;;;;;;;14.73;3.72;;;;;;;24.77;18.57;98482.41;1745227;80;21134;-58
2022/04/12 09:27:19;;;;;;;9.00;3.50;;;;;;;25.18;18.07;98474.02;1745558;80;21036;-57
2022/04/12 09:29:58;;;;;;;8.95;3.72;;;;;;;25.07;18.75;98474.97;1745446;79;21030;-58
2022/04/12 09:32:26;;;;;;;6.65;2.62;;;;;;;24.46;15.93;98479.16;1744752;82;21478;-58
2022/04/12 09:34:53;;;;;;;5.67;3.65;;;;;;;23.20;17.10;98474.84;1728841;81;20989;-58
2022/04/12 09:37:27;;;;;;;13.10;4.30;;;;;;;22.32;17.19;98477.33;1743719;80;21723;-58
2022/04/12 09:40:13;;;;;;;4.40;2.87;;;;;;;19.71;20.09;98476.44;1744125;80;21038;-58
2022/04/12 09:42:53;;;;;;;11.05;4.55;;;;;;;17.93;22.76;98469.63;1745007;79;20974;-58
2022/04/12 09:45:28;;;;;;;21.57;4.62;;;;;;;17.78;23.15;98479.66;1743949;80;21045;-58
2022/04/12 09:47:56;;;;;;;13.75;4.45;;;;;;;16.65;23.99;98471.16;1746851;80;21016;-58
2022/04/12 09:50:23;;;;;;;;;;;;;;;15.84;26.97;98476.42;1746972;80;21047;-58
2022/04/12 09:53:00;;;;;;;7.30;3.50;;;;;;;15.08;26.34;98475.83;1745209;80;20239;-57
2022/04/12 09:55:38;;;;;;;9.30;3.42;;;;;;;14.34;27.29;98475.52;1744107;80;21430;-58
2022/04/12 09:58:05;;;;;;;6.80;3.77;;;;;;;14.04;27.67;98469.91;1741483;80;20981;-57
2022/04/12 10:00:32;;;;;;;16.50;4.80;;;;;;;13.39;28.71;98470.06;1740069;80;21437;-57
2022/04/12 10:03:06;;;;;;;6.10;3.72;;;;;;;13.09;30.58;98472.50;1735267;81;21295;-57
2022/04/12 10:05:32;;;;;;;96.85;11.57;;;;;;;12.73;29.69;98470.02;1732945;80;21418;-57
2022/04/12 10:07:59;;;;;;;5.42;3.55;;;;;;;12.52;30.40;98459.84;1747594;79;20872;-57
2022/04/12 10:10:27;;;;;;;;;;;;;;;12.07;29.88;98463.63;1735616;80;21011;-57
2022/04/12 10:12:54;;;;;;;27.07;4.97;;;;;;;12.41;31.07;98456.38;1740943;80;20229;-57
2022/04/12 10:15:20;;;;;;;5.80;3.58;;;;;;;12.10;31.56;98459.80;1744336;80;21747;-57
2022/04/12 10:17:47;;;;;;;7.15;3.47;;;;;;;12.17;30.92;98463.58;1743651;79;21134;-57
2022/04/12 10:20:13;;;;;;;8.25;3.70;;;;;;;12.14;31.57;98463.59;1743143;80;21556;-58
2022/04/12 10:22:39;;;;;;;7.20;3.62;;;;;;;11.91;31.56;98461.52;1712506;81;20996;-57
2022/04/12 10:25:06;;;;;;;11.35;5.05;;;;;;;11.90;30.96;98457.17;1727415;81;20989;-57
2022/04/12 10:27:32;;;;;;;6.50;3.77;;;;;;;11.78;32.21;98460.70;1737871;80;21976;-57
2022/04/12 10:30:26;;;;;;;7.22;3.33;;;;;;;11.81;32.68;98464.27;1742908;80;20952;-57
2022/04/12 10:33:07;;;;;;;7.22;3.98;;;;;;;11.83;31.93;98453.39;1741223;80;21624;-57
2022/04/12 10:35:48;;;;;;;7.80;4.10;;;;;;;11.82;31.89;98455.03;1735816;80;21012;-58
2022/04/12 10:38:16;;;;;;;10.85;4.10;;;;;;;11.79;33.00;98455.53;1745192;80;21027;-57
2022/04/12 10:40:46;;;;;;;10.45;4.00;;;;;;;11.92;33.49;98449.55;1741424;80;21226;-57
2022/04/12 10:43:14;;;;;;;8.13;3.77;;;;;;;11.88;32.46;98454.45;1740514;80;21592;-57
2022/04/12 10:45:48;;;;;;;5.67;4.15;;;;;;;11.85;32.20;98453.11;1733308;81;21095;-57
2022/04/12 10:48:19;;;;;;;6.28;3.33;;;;;;;11.72;32.68;98451.78;1722845;80;21023;-57
2022/04/12 10:50:46;;;;;;;6.25;3.98;;;;;;;11.86;32.82;98445.23;1734014;80;21425;-57
2022/04/12 10:53:12;;;;;;;10.65;4.45;;;;;;;12.02;32.62;98440.55;1739672;80;21058;-57
2022/04/12 10:55:43;;;;;;;16.27;3.77;;;;;;;12.07;32.74;98437.83;1755645;80;21027;-58
2022/04/12 10:58:34;;;;;;;6.90;4.20;;;;;;;12.10;32.93;98448.93;1726574;81;21087;-57
2022/04/12 11:01:00;;;;;;;12.43;4.08;;;;;;;12.10;32.67;98445.41;1724339;82;21430;-57
2022/04/12 11:03:43;;;;;;;5.25;2.87;;;;;;;12.17;33.23;98445.91;1732574;80;21146;-51
2022/04/12 11:06:23;;;;;;;7.55;3.87;;;;;;;12.17;33.30;98436.95;1721568;80;21118;-52
2022/04/12 11:08:51;;;;;;;8.85;4.17;;;;;;;12.07;31.39;98445.42;1754039;80;21104;-54
2022/04/12 11:11:30;;;;;;;18.10;5.17;;;;;;;11.84;32.27;98448.23;1744340;80;21954;-54
2022/04/12 11:13:56;;;;;;;10.03;4.33;;;;;;;11.97;32.89;98439.23;1734356;80;21004;-52
2022/04/12 11:16:26;;;;;;;5.78;3.62;;;;;;;11.96;32.11;98439.75;1695602;82;21041;-53
2022/04/12 11:18:55;;;;;;;40.08;6.12;;;;;;;12.07;32.63;98437.83;1736490;81;21863;-53
2022/04/12 11:21:26;;;;;;;15.15;4.97;;;;;;;12.07;32.37;98444.06;1733051;80;21032;-54
2022/04/12 11:23:59;;;;;;;7.30;3.75;;;;;;;12.07;31.85;98433.75;1735450;80;21097;-57
2022/04/12 11:26:46;;;;;;;7.95;3.47;;;;;;;12.01;32.39;98434.31;1732063;80;21016;-57
2022/04/12 11:29:18;;;;;;;7.05;3.47;;;;;;;12.03;32.67;98428.59;1740771;80;21524;-57